sensor_id;sensor_type;location;lat;lon;timestamp;P1;durP1;ratioP1;P2;durP2;ratioP2
21786;SDS011;11055;50.870;4.316;2023-01-26T00:01:13;99.80;;;35.53;;
21786;SDS011;11055;50.870;4.316;2023-01-26T00:03:49;98.47;;;36.38;;
21786;SDS011;11055;50.870;4.316;2023-01-26T00:06:16;104.05;;;35.75;;
21786;SDS011;11055;50.870;4.316;2023-01-26T00:08:44;99.80;;;37.33;;
21786;SDS011;11055;50.870;4.316;2023-01-26T00:11:11;94.88;;;35.03;;
21786;SDS011;11055;50.870;4.316;2023-01-26T00:13:39;94.97;;;36.85;;
21786;SDS011;11055;50.870;4.316;2023-01-26T00:16:09;91.25;;;36.05;;
21786;SDS011;11055;50.870;4.316;2023-01-26T00:18:37;96.75;;;37.85;;
21786;SDS011;11055;50.870;4.316;2023-01-26T00:21:03;101.28;;;37.88;;
21786;SDS011;11055;50.870;4.316;2023-01-26T00:23:30;93.75;;;35.72;;
21786;SDS011;11055;50.870;4.316;2023-01-26T00:25:57;100.32;;;34.95;;
21786;SDS011;11055;50.870;4.316;2023-01-26T00:28:23;101.35;;;36.15;;
21786;SDS011;11055;50.870;4.316;2023-01-26T00:30:49;103.40;;;37.63;;
21786;SDS011;11055;50.870;4.316;2023-01-26T00:33:14;101.57;;;35.78;;
21786;SDS011;11055;50.870;4.316;2023-01-26T00:35:40;103.05;;;37.70;;
21786;SDS011;11055;50.870;4.316;2023-01-26T00:38:12;103.70;;;36.35;;
21786;SDS011;11055;50.870;4.316;2023-01-26T00:40:38;94.65;;;34.45;;
21786;SDS011;11055;50.870;4.316;2023-01-26T00:43:04;99.95;;;36.45;;
21786;SDS011;11055;50.870;4.316;2023-01-26T00:45:30;93.05;;;36.38;;
21786;SDS011;11055;50.870;4.316;2023-01-26T00:47:56;99.25;;;37.03;;
21786;SDS011;11055;50.870;4.316;2023-01-26T00:50:21;97.38;;;36.35;;
21786;SDS011;11055;50.870;4.316;2023-01-26T00:52:47;97.47;;;35.38;;
21786;SDS011;11055;50.870;4.316;2023-01-26T00:55:13;101.32;;;34.72;;
21786;SDS011;11055;50.870;4.316;2023-01-26T00:57:38;108.53;;;38.50;;
21786;SDS011;11055;50.870;4.316;2023-01-26T01:00:04;104.35;;;38.05;;
21786;SDS011;11055;50.870;4.316;2023-01-26T01:02:31;113.50;;;39.30;;
21786;SDS011;11055;50.870;4.316;2023-01-26T01:04:56;103.85;;;38.15;;
21786;SDS011;11055;50.870;4.316;2023-01-26T01:07:22;109.13;;;38.03;;
21786;SDS011;11055;50.870;4.316;2023-01-26T01:09:48;101.32;;;37.50;;
21786;SDS011;11055;50.870;4.316;2023-01-26T01:12:13;108.75;;;37.78;;
21786;SDS011;11055;50.870;4.316;2023-01-26T01:14:39;97.25;;;37.00;;
21786;SDS011;11055;50.870;4.316;2023-01-26T01:17:05;99.28;;;36.63;;
21786;SDS011;11055;50.870;4.316;2023-01-26T01:19:30;101.75;;;36.70;;
21786;SDS011;11055;50.870;4.316;2023-01-26T01:21:56;97.15;;;37.17;;
21786;SDS011;11055;50.870;4.316;2023-01-26T01:24:22;98.88;;;37.38;;
21786;SDS011;11055;50.870;4.316;2023-01-26T01:26:47;98.18;;;36.45;;
21786;SDS011;11055;50.870;4.316;2023-01-26T01:29:13;95.53;;;36.78;;
21786;SDS011;11055;50.870;4.316;2023-01-26T01:31:39;94.68;;;36.58;;
21786;SDS011;11055;50.870;4.316;2023-01-26T01:34:08;99.88;;;37.58;;
21786;SDS011;11055;50.870;4.316;2023-01-26T01:36:33;90.15;;;35.10;;
21786;SDS011;11055;50.870;4.316;2023-01-26T01:38:59;94.53;;;36.00;;
21786;SDS011;11055;50.870;4.316;2023-01-26T01:41:25;95.93;;;35.83;;
21786;SDS011;11055;50.870;4.316;2023-01-26T01:44:09;93.32;;;35.47;;
21786;SDS011;11055;50.870;4.316;2023-01-26T01:46:46;101.53;;;36.72;;
21786;SDS011;11055;50.870;4.316;2023-01-26T01:49:50;95.28;;;37.00;;
21786;SDS011;11055;50.870;4.316;2023-01-26T01:52:20;92.60;;;36.80;;
21786;SDS011;11055;50.870;4.316;2023-01-26T01:57:24;92.20;;;34.80;;
21786;SDS011;11055;50.870;4.316;2023-01-26T02:02:22;89.82;;;34.13;;
21786;SDS011;11055;50.870;4.316;2023-01-26T02:04:48;93.07;;;35.95;;
21786;SDS011;11055;50.870;4.316;2023-01-26T02:07:14;91.53;;;35.75;;
21786;SDS011;11055;50.870;4.316;2023-01-26T02:09:40;98.80;;;35.72;;
21786;SDS011;11055;50.870;4.316;2023-01-26T02:12:26;91.03;;;32.95;;
21786;SDS011;11055;50.870;4.316;2023-01-26T02:14:55;91.68;;;34.58;;
21786;SDS011;11055;50.870;4.316;2023-01-26T02:17:21;90.57;;;35.38;;
21786;SDS011;11055;50.870;4.316;2023-01-26T02:20:00;93.22;;;35.60;;
21786;SDS011;11055;50.870;4.316;2023-01-26T02:25:26;88.68;;;32.55;;
21786;SDS011;11055;50.870;4.316;2023-01-26T02:28:01;89.38;;;33.75;;
21786;SDS011;11055;50.870;4.316;2023-01-26T02:30:27;81.30;;;34.10;;
21786;SDS011;11055;50.870;4.316;2023-01-26T02:32:54;87.90;;;34.30;;
21786;SDS011;11055;50.870;4.316;2023-01-26T02:35:20;87.65;;;34.53;;
21786;SDS011;11055;50.870;4.316;2023-01-26T02:37:45;79.50;;;33.25;;
21786;SDS011;11055;50.870;4.316;2023-01-26T02:42:48;84.85;;;33.97;;
21786;SDS011;11055;50.870;4.316;2023-01-26T02:45:18;85.03;;;33.65;;
21786;SDS011;11055;50.870;4.316;2023-01-26T02:47:46;85.03;;;34.20;;
21786;SDS011;11055;50.870;4.316;2023-01-26T02:50:12;90.03;;;34.63;;
21786;SDS011;11055;50.870;4.316;2023-01-26T02:52:39;92.32;;;36.60;;
21786;SDS011;11055;50.870;4.316;2023-01-26T02:55:05;84.10;;;33.65;;
21786;SDS011;11055;50.870;4.316;2023-01-26T02:57:47;83.70;;;34.13;;
21786;SDS011;11055;50.870;4.316;2023-01-26T03:00:18;85.50;;;34.40;;
21786;SDS011;11055;50.870;4.316;2023-01-26T03:02:46;83.35;;;33.53;;
21786;SDS011;11055;50.870;4.316;2023-01-26T03:05:12;86.18;;;35.45;;
21786;SDS011;11055;50.870;4.316;2023-01-26T03:07:38;89.72;;;35.58;;
21786;SDS011;11055;50.870;4.316;2023-01-26T03:10:04;92.30;;;35.30;;
21786;SDS011;11055;50.870;4.316;2023-01-26T03:12:31;89.68;;;36.25;;
21786;SDS011;11055;50.870;4.316;2023-01-26T03:14:56;88.43;;;35.38;;
21786;SDS011;11055;50.870;4.316;2023-01-26T03:17:40;93.82;;;34.65;;
21786;SDS011;11055;50.870;4.316;2023-01-26T03:20:06;90.03;;;35.58;;
21786;SDS011;11055;50.870;4.316;2023-01-26T03:22:52;84.85;;;33.20;;
21786;SDS011;11055;50.870;4.316;2023-01-26T03:25:36;82.35;;;32.58;;
21786;SDS011;11055;50.870;4.316;2023-01-26T03:28:20;87.22;;;34.28;;
21786;SDS011;11055;50.870;4.316;2023-01-26T03:30:50;89.75;;;35.65;;
21786;SDS011;11055;50.870;4.316;2023-01-26T03:33:18;79.07;;;31.42;;
21786;SDS011;11055;50.870;4.316;2023-01-26T03:35:44;86.80;;;33.72;;
21786;SDS011;11055;50.870;4.316;2023-01-26T03:38:10;89.50;;;34.45;;
21786;SDS011;11055;50.870;4.316;2023-01-26T03:40:36;81.95;;;32.25;;
21786;SDS011;11055;50.870;4.316;2023-01-26T03:43:21;82.22;;;32.97;;
21786;SDS011;11055;50.870;4.316;2023-01-26T03:46:05;80.85;;;31.48;;
21786;SDS011;11055;50.870;4.316;2023-01-26T03:48:51;85.60;;;31.52;;
21786;SDS011;11055;50.870;4.316;2023-01-26T03:51:35;75.47;;;30.45;;
21786;SDS011;11055;50.870;4.316;2023-01-26T03:54:19;84.05;;;31.65;;
21786;SDS011;11055;50.870;4.316;2023-01-26T03:57:03;79.78;;;31.67;;
21786;SDS011;11055;50.870;4.316;2023-01-26T03:59:29;75.22;;;30.95;;
21786;SDS011;11055;50.870;4.316;2023-01-26T04:02:08;68.85;;;28.65;;
21786;SDS011;11055;50.870;4.316;2023-01-26T04:04:54;68.43;;;27.67;;
21786;SDS011;11055;50.870;4.316;2023-01-26T04:07:38;76.45;;;29.33;;
21786;SDS011;11055;50.870;4.316;2023-01-26T04:10:23;73.68;;;29.05;;
21786;SDS011;11055;50.870;4.316;2023-01-26T04:12:49;82.65;;;33.65;;
21786;SDS011;11055;50.870;4.316;2023-01-26T04:15:34;76.68;;;29.52;;
21786;SDS011;11055;50.870;4.316;2023-01-26T04:18:19;79.68;;;32.00;;
21786;SDS011;11055;50.870;4.316;2023-01-26T04:21:03;79.95;;;30.00;;
21786;SDS011;11055;50.870;4.316;2023-01-26T04:23:48;68.43;;;28.00;;
21786;SDS011;11055;50.870;4.316;2023-01-26T04:26:14;72.50;;;29.75;;
21786;SDS011;11055;50.870;4.316;2023-01-26T04:28:40;72.57;;;29.10;;
21786;SDS011;11055;50.870;4.316;2023-01-26T04:31:06;70.95;;;30.00;;
21786;SDS011;11055;50.870;4.316;2023-01-26T04:33:32;73.85;;;29.30;;
21786;SDS011;11055;50.870;4.316;2023-01-26T04:36:04;72.68;;;29.00;;
21786;SDS011;11055;50.870;4.316;2023-01-26T04:38:32;65.25;;;27.83;;
21786;SDS011;11055;50.870;4.316;2023-01-26T04:40:57;71.78;;;29.92;;
21786;SDS011;11055;50.870;4.316;2023-01-26T04:43:23;68.35;;;29.05;;
21786;SDS011;11055;50.870;4.316;2023-01-26T04:46:05;75.20;;;30.27;;
21786;SDS011;11055;50.870;4.316;2023-01-26T04:48:31;72.40;;;28.55;;
21786;SDS011;11055;50.870;4.316;2023-01-26T04:50:59;69.50;;;29.98;;
21786;SDS011;11055;50.870;4.316;2023-01-26T04:53:26;67.97;;;27.77;;
21786;SDS011;11055;50.870;4.316;2023-01-26T04:55:52;67.72;;;26.00;;
21786;SDS011;11055;50.870;4.316;2023-01-26T04:58:19;69.20;;;28.42;;
21786;SDS011;11055;50.870;4.316;2023-01-26T05:00:48;62.47;;;26.23;;
21786;SDS011;11055;50.870;4.316;2023-01-26T05:03:21;63.33;;;27.38;;
21786;SDS011;11055;50.870;4.316;2023-01-26T05:05:48;64.25;;;26.75;;
21786;SDS011;11055;50.870;4.316;2023-01-26T05:08:15;60.53;;;26.55;;
21786;SDS011;11055;50.870;4.316;2023-01-26T05:10:42;59.92;;;24.63;;
21786;SDS011;11055;50.870;4.316;2023-01-26T05:13:08;62.00;;;27.48;;
21786;SDS011;11055;50.870;4.316;2023-01-26T05:15:34;64.82;;;26.70;;
21786;SDS011;11055;50.870;4.316;2023-01-26T05:18:00;59.25;;;24.83;;
21786;SDS011;11055;50.870;4.316;2023-01-26T05:20:26;63.17;;;26.67;;
21786;SDS011;11055;50.870;4.316;2023-01-26T05:22:52;59.00;;;24.88;;
21786;SDS011;11055;50.870;4.316;2023-01-26T05:25:18;61.90;;;25.52;;
21786;SDS011;11055;50.870;4.316;2023-01-26T05:27:43;57.00;;;24.95;;
21786;SDS011;11055;50.870;4.316;2023-01-26T05:30:09;58.42;;;24.63;;
21786;SDS011;11055;50.870;4.316;2023-01-26T05:32:36;56.15;;;24.17;;
21786;SDS011;11055;50.870;4.316;2023-01-26T05:35:03;57.60;;;26.30;;
21786;SDS011;11055;50.870;4.316;2023-01-26T05:37:29;52.70;;;23.85;;
21786;SDS011;11055;50.870;4.316;2023-01-26T05:39:55;54.42;;;24.25;;
21786;SDS011;11055;50.870;4.316;2023-01-26T05:42:21;54.00;;;23.10;;
21786;SDS011;11055;50.870;4.316;2023-01-26T05:44:48;56.45;;;23.73;;
21786;SDS011;11055;50.870;4.316;2023-01-26T05:47:13;53.88;;;23.17;;
21786;SDS011;11055;50.870;4.316;2023-01-26T05:49:39;52.63;;;22.00;;
21786;SDS011;11055;50.870;4.316;2023-01-26T05:52:19;56.15;;;23.67;;
21786;SDS011;11055;50.870;4.316;2023-01-26T05:54:46;51.13;;;21.85;;
21786;SDS011;11055;50.870;4.316;2023-01-26T05:57:12;50.13;;;22.08;;
21786;SDS011;11055;50.870;4.316;2023-01-26T05:59:38;56.97;;;22.88;;
21786;SDS011;11055;50.870;4.316;2023-01-26T06:02:03;61.95;;;23.92;;
21786;SDS011;11055;50.870;4.316;2023-01-26T06:04:29;54.35;;;22.80;;
21786;SDS011;11055;50.870;4.316;2023-01-26T06:06:56;56.85;;;22.98;;
21786;SDS011;11055;50.870;4.316;2023-01-26T06:09:23;53.28;;;21.83;;
21786;SDS011;11055;50.870;4.316;2023-01-26T06:11:49;58.33;;;23.10;;
21786;SDS011;11055;50.870;4.316;2023-01-26T06:14:14;54.13;;;22.45;;
21786;SDS011;11055;50.870;4.316;2023-01-26T06:16:40;50.65;;;22.17;;
21786;SDS011;11055;50.870;4.316;2023-01-26T06:19:07;51.70;;;21.77;;
21786;SDS011;11055;50.870;4.316;2023-01-26T06:21:34;48.08;;;21.67;;
21786;SDS011;11055;50.870;4.316;2023-01-26T06:24:00;53.95;;;22.17;;
21786;SDS011;11055;50.870;4.316;2023-01-26T06:26:25;47.42;;;20.65;;
21786;SDS011;11055;50.870;4.316;2023-01-26T06:28:51;47.97;;;20.15;;
21786;SDS011;11055;50.870;4.316;2023-01-26T06:31:17;49.97;;;21.52;;
21786;SDS011;11055;50.870;4.316;2023-01-26T06:33:44;45.13;;;20.05;;
21786;SDS011;11055;50.870;4.316;2023-01-26T06:36:10;47.28;;;20.60;;
21786;SDS011;11055;50.870;4.316;2023-01-26T06:38:38;45.70;;;19.88;;
21786;SDS011;11055;50.870;4.316;2023-01-26T06:41:09;47.00;;;20.50;;
21786;SDS011;11055;50.870;4.316;2023-01-26T06:43:35;44.42;;;19.40;;
21786;SDS011;11055;50.870;4.316;2023-01-26T06:46:01;43.72;;;19.92;;
21786;SDS011;11055;50.870;4.316;2023-01-26T06:48:29;41.67;;;19.55;;
21786;SDS011;11055;50.870;4.316;2023-01-26T06:50:57;39.90;;;18.55;;
21786;SDS011;11055;50.870;4.316;2023-01-26T06:53:47;43.17;;;17.80;;
21786;SDS011;11055;50.870;4.316;2023-01-26T06:56:17;42.70;;;18.70;;
21786;SDS011;11055;50.870;4.316;2023-01-26T06:58:44;39.95;;;17.60;;
21786;SDS011;11055;50.870;4.316;2023-01-26T07:01:11;38.33;;;18.33;;
21786;SDS011;11055;50.870;4.316;2023-01-26T07:03:42;37.83;;;18.13;;
21786;SDS011;11055;50.870;4.316;2023-01-26T07:06:08;40.80;;;18.23;;
21786;SDS011;11055;50.870;4.316;2023-01-26T07:08:37;41.35;;;17.60;;
21786;SDS011;11055;50.870;4.316;2023-01-26T07:11:03;37.28;;;16.80;;
21786;SDS011;11055;50.870;4.316;2023-01-26T07:13:29;37.85;;;16.63;;
21786;SDS011;11055;50.870;4.316;2023-01-26T07:16:14;38.33;;;19.10;;
21786;SDS011;11055;50.870;4.316;2023-01-26T07:18:41;47.03;;;22.33;;
21786;SDS011;11055;50.870;4.316;2023-01-26T07:21:08;39.85;;;17.27;;
21786;SDS011;11055;50.870;4.316;2023-01-26T07:23:36;38.55;;;17.55;;
21786;SDS011;11055;50.870;4.316;2023-01-26T07:26:02;37.60;;;17.98;;
21786;SDS011;11055;50.870;4.316;2023-01-26T07:28:28;39.50;;;18.58;;
21786;SDS011;11055;50.870;4.316;2023-01-26T07:30:58;37.40;;;17.75;;
21786;SDS011;11055;50.870;4.316;2023-01-26T07:33:24;40.55;;;18.42;;
21786;SDS011;11055;50.870;4.316;2023-01-26T07:35:53;38.47;;;18.05;;
21786;SDS011;11055;50.870;4.316;2023-01-26T07:38:19;39.00;;;18.35;;
21786;SDS011;11055;50.870;4.316;2023-01-26T07:40:45;40.55;;;19.95;;
21786;SDS011;11055;50.870;4.316;2023-01-26T07:43:12;38.75;;;18.33;;
21786;SDS011;11055;50.870;4.316;2023-01-26T07:45:38;44.42;;;19.65;;
21786;SDS011;11055;50.870;4.316;2023-01-26T07:48:04;48.08;;;20.02;;
21786;SDS011;11055;50.870;4.316;2023-01-26T07:50:30;43.47;;;19.90;;
21786;SDS011;11055;50.870;4.316;2023-01-26T07:52:58;43.58;;;19.77;;
21786;SDS011;11055;50.870;4.316;2023-01-26T07:55:25;48.03;;;21.48;;
21786;SDS011;11055;50.870;4.316;2023-01-26T07:57:50;42.40;;;21.35;;
21786;SDS011;11055;50.870;4.316;2023-01-26T08:00:17;41.97;;;19.75;;
21786;SDS011;11055;50.870;4.316;2023-01-26T08:02:43;49.20;;;21.70;;
21786;SDS011;11055;50.870;4.316;2023-01-26T08:05:13;43.55;;;19.38;;
21786;SDS011;11055;50.870;4.316;2023-01-26T08:07:38;44.13;;;19.48;;
21786;SDS011;11055;50.870;4.316;2023-01-26T08:10:04;47.30;;;19.98;;
21786;SDS011;11055;50.870;4.316;2023-01-26T08:12:30;47.97;;;19.70;;
21786;SDS011;11055;50.870;4.316;2023-01-26T08:14:58;47.97;;;20.67;;
21786;SDS011;11055;50.870;4.316;2023-01-26T08:17:24;48.88;;;21.15;;
21786;SDS011;11055;50.870;4.316;2023-01-26T08:19:49;54.67;;;22.10;;
21786;SDS011;11055;50.870;4.316;2023-01-26T08:22:15;52.15;;;21.17;;
21786;SDS011;11055;50.870;4.316;2023-01-26T08:24:40;52.25;;;21.33;;
21786;SDS011;11055;50.870;4.316;2023-01-26T08:27:06;48.17;;;21.08;;
21786;SDS011;11055;50.870;4.316;2023-01-26T08:29:32;47.28;;;20.00;;
21786;SDS011;11055;50.870;4.316;2023-01-26T08:31:57;46.83;;;20.27;;
21786;SDS011;11055;50.870;4.316;2023-01-26T08:34:23;57.03;;;22.58;;
21786;SDS011;11055;50.870;4.316;2023-01-26T08:36:50;49.83;;;19.55;;
21786;SDS011;11055;50.870;4.316;2023-01-26T08:39:16;48.80;;;19.40;;
21786;SDS011;11055;50.870;4.316;2023-01-26T08:41:41;49.47;;;20.33;;
21786;SDS011;11055;50.870;4.316;2023-01-26T08:44:08;45.35;;;18.83;;
21786;SDS011;11055;50.870;4.316;2023-01-26T08:46:34;47.85;;;19.60;;
21786;SDS011;11055;50.870;4.316;2023-01-26T08:49:00;47.70;;;19.55;;
21786;SDS011;11055;50.870;4.316;2023-01-26T08:51:26;46.40;;;19.70;;
21786;SDS011;11055;50.870;4.316;2023-01-26T08:53:52;43.38;;;19.17;;
21786;SDS011;11055;50.870;4.316;2023-01-26T08:56:18;45.80;;;19.90;;
21786;SDS011;11055;50.870;4.316;2023-01-26T08:58:44;48.30;;;20.70;;
21786;SDS011;11055;50.870;4.316;2023-01-26T09:01:11;44.20;;;19.13;;
21786;SDS011;11055;50.870;4.316;2023-01-26T09:03:38;47.20;;;20.98;;
21786;SDS011;11055;50.870;4.316;2023-01-26T09:06:04;41.60;;;19.27;;
21786;SDS011;11055;50.870;4.316;2023-01-26T09:08:31;43.22;;;18.50;;
21786;SDS011;11055;50.870;4.316;2023-01-26T09:10:57;40.42;;;19.38;;
21786;SDS011;11055;50.870;4.316;2023-01-26T09:13:23;38.28;;;18.20;;
21786;SDS011;11055;50.870;4.316;2023-01-26T09:15:51;33.03;;;16.88;;
21786;SDS011;11055;50.870;4.316;2023-01-26T09:18:17;32.75;;;16.27;;
21786;SDS011;11055;50.870;4.316;2023-01-26T09:20:43;34.50;;;17.00;;
21786;SDS011;11055;50.870;4.316;2023-01-26T09:23:09;38.40;;;17.48;;
21786;SDS011;11055;50.870;4.316;2023-01-26T09:25:36;37.03;;;17.35;;
21786;SDS011;11055;50.870;4.316;2023-01-26T09:28:04;32.40;;;16.70;;
21786;SDS011;11055;50.870;4.316;2023-01-26T09:30:30;31.55;;;16.95;;
21786;SDS011;11055;50.870;4.316;2023-01-26T09:32:57;34.88;;;17.48;;
21786;SDS011;11055;50.870;4.316;2023-01-26T09:35:24;35.85;;;16.92;;
21786;SDS011;11055;50.870;4.316;2023-01-26T09:37:50;34.25;;;15.93;;
21786;SDS011;11055;50.870;4.316;2023-01-26T09:40:20;32.75;;;15.25;;
21786;SDS011;11055;50.870;4.316;2023-01-26T09:43:00;33.15;;;16.23;;
21786;SDS011;11055;50.870;4.316;2023-01-26T09:45:44;30.77;;;16.25;;
21786;SDS011;11055;50.870;4.316;2023-01-26T09:48:36;36.10;;;17.38;;
21786;SDS011;11055;50.870;4.316;2023-01-26T09:51:05;33.63;;;17.35;;
21786;SDS011;11055;50.870;4.316;2023-01-26T09:53:39;33.70;;;17.60;;
21786;SDS011;11055;50.870;4.316;2023-01-26T09:56:17;33.78;;;16.23;;
21786;SDS011;11055;50.870;4.316;2023-01-26T09:59:00;36.65;;;18.17;;
21786;SDS011;11055;50.870;4.316;2023-01-26T10:01:30;32.33;;;17.02;;
21786;SDS011;11055;50.870;4.316;2023-01-26T10:04:00;31.92;;;16.45;;
21786;SDS011;11055;50.870;4.316;2023-01-26T10:06:35;29.50;;;15.95;;
21786;SDS011;11055;50.870;4.316;2023-01-26T10:09:07;30.70;;;16.05;;
21786;SDS011;11055;50.870;4.316;2023-01-26T10:11:44;32.70;;;17.30;;
21786;SDS011;11055;50.870;4.316;2023-01-26T10:14:14;34.70;;;16.83;;
21786;SDS011;11055;50.870;4.316;2023-01-26T10:16:47;35.38;;;16.88;;
21786;SDS011;11055;50.870;4.316;2023-01-26T10:19:16;40.25;;;18.77;;
21786;SDS011;11055;50.870;4.316;2023-01-26T10:21:50;37.47;;;16.92;;
21786;SDS011;11055;50.870;4.316;2023-01-26T10:24:20;39.45;;;18.65;;
21786;SDS011;11055;50.870;4.316;2023-01-26T10:26:48;40.47;;;17.63;;
21786;SDS011;11055;50.870;4.316;2023-01-26T10:29:16;36.40;;;17.17;;
21786;SDS011;11055;50.870;4.316;2023-01-26T10:31:42;39.60;;;18.85;;
21786;SDS011;11055;50.870;4.316;2023-01-26T10:34:13;38.97;;;18.63;;
21786;SDS011;11055;50.870;4.316;2023-01-26T10:36:46;38.67;;;18.17;;
21786;SDS011;11055;50.870;4.316;2023-01-26T10:39:12;43.22;;;19.20;;
21786;SDS011;11055;50.870;4.316;2023-01-26T10:41:54;43.20;;;19.95;;
21786;SDS011;11055;50.870;4.316;2023-01-26T10:47:01;45.03;;;19.15;;
21786;SDS011;11055;50.870;4.316;2023-01-26T10:49:37;48.42;;;20.42;;
21786;SDS011;11055;50.870;4.316;2023-01-26T10:52:07;48.13;;;20.30;;
21786;SDS011;11055;50.870;4.316;2023-01-26T10:54:39;51.55;;;19.98;;
21786;SDS011;11055;50.870;4.316;2023-01-26T10:57:18;56.00;;;22.30;;
21786;SDS011;11055;50.870;4.316;2023-01-26T10:59:56;56.40;;;21.98;;
21786;SDS011;11055;50.870;4.316;2023-01-26T11:02:32;50.75;;;21.58;;
21786;SDS011;11055;50.870;4.316;2023-01-26T11:07:45;59.50;;;22.95;;
21786;SDS011;11055;50.870;4.316;2023-01-26T11:12:41;64.72;;;25.27;;
21786;SDS011;11055;50.870;4.316;2023-01-26T11:20:46;59.13;;;23.55;;
21786;SDS011;11055;50.870;4.316;2023-01-26T11:26:19;63.88;;;23.98;;
21786;SDS011;11055;50.870;4.316;2023-01-26T11:31:49;64.70;;;24.42;;
21786;SDS011;11055;50.870;4.316;2023-01-26T11:40:23;74.32;;;26.20;;
21786;SDS011;11055;50.870;4.316;2023-01-26T11:43:05;69.72;;;26.45;;
21786;SDS011;11055;50.870;4.316;2023-01-26T11:51:23;63.35;;;25.00;;
21786;SDS011;11055;50.870;4.316;2023-01-26T11:59:29;62.03;;;23.73;;
21786;SDS011;11055;50.870;4.316;2023-01-26T12:02:02;65.53;;;24.95;;
21786;SDS011;11055;50.870;4.316;2023-01-26T12:04:43;57.60;;;22.88;;
21786;SDS011;11055;50.870;4.316;2023-01-26T12:07:13;63.00;;;22.58;;
21786;SDS011;11055;50.870;4.316;2023-01-26T12:09:44;57.42;;;21.83;;
21786;SDS011;11055;50.870;4.316;2023-01-26T12:12:21;61.35;;;22.80;;
21786;SDS011;11055;50.870;4.316;2023-01-26T12:15:18;67.70;;;23.67;;
21786;SDS011;11055;50.870;4.316;2023-01-26T12:20:49;60.45;;;20.77;;
21786;SDS011;11055;50.870;4.316;2023-01-26T12:23:35;56.00;;;20.52;;
21786;SDS011;11055;50.870;4.316;2023-01-26T12:26:16;56.65;;;20.60;;
21786;SDS011;11055;50.870;4.316;2023-01-26T12:34:10;47.58;;;16.13;;
21786;SDS011;11055;50.870;4.316;2023-01-26T12:36:50;55.45;;;16.52;;
21786;SDS011;11055;50.870;4.316;2023-01-26T12:39:43;56.95;;;17.33;;
21786;SDS011;11055;50.870;4.316;2023-01-26T12:45:21;36.67;;;11.18;;
21786;SDS011;11055;50.870;4.316;2023-01-26T12:47:53;36.78;;;10.25;;
21786;SDS011;11055;50.870;4.316;2023-01-26T12:50:41;38.45;;;8.30;;
21786;SDS011;11055;50.870;4.316;2023-01-26T12:53:28;37.25;;;8.77;;
21786;SDS011;11055;50.870;4.316;2023-01-26T12:58:26;28.48;;;7.95;;
21786;SDS011;11055;50.870;4.316;2023-01-26T13:01:13;34.80;;;7.30;;
21786;SDS011;11055;50.870;4.316;2023-01-26T13:03:50;26.83;;;6.88;;
21786;SDS011;11055;50.870;4.316;2023-01-26T13:06:23;30.70;;;6.95;;
21786;SDS011;11055;50.870;4.316;2023-01-26T13:19:52;25.92;;;5.40;;
21786;SDS011;11055;50.870;4.316;2023-01-26T13:24:49;17.75;;;4.85;;
21786;SDS011;11055;50.870;4.316;2023-01-26T13:29:52;23.02;;;5.18;;
21786;SDS011;11055;50.870;4.316;2023-01-26T13:34:57;23.50;;;3.90;;
21786;SDS011;11055;50.870;4.316;2023-01-26T13:37:27;21.05;;;4.00;;
21786;SDS011;11055;50.870;4.316;2023-01-26T13:39:59;21.05;;;3.78;;
21786;SDS011;11055;50.870;4.316;2023-01-26T13:48:00;26.40;;;4.18;;
21786;SDS011;11055;50.870;4.316;2023-01-26T13:52:56;15.48;;;2.80;;
21786;SDS011;11055;50.870;4.316;2023-01-26T13:55:23;14.88;;;2.80;;
21786;SDS011;11055;50.870;4.316;2023-01-26T14:00:36;12.70;;;2.72;;
21786;SDS011;11055;50.870;4.316;2023-01-26T14:03:02;13.57;;;2.67;;
21786;SDS011;11055;50.870;4.316;2023-01-26T14:05:28;15.52;;;2.92;;
21786;SDS011;11055;50.870;4.316;2023-01-26T14:07:55;15.23;;;2.95;;
21786;SDS011;11055;50.870;4.316;2023-01-26T14:10:22;15.10;;;3.28;;
21786;SDS011;11055;50.870;4.316;2023-01-26T14:12:49;19.45;;;2.70;;
21786;SDS011;11055;50.870;4.316;2023-01-26T14:15:38;17.75;;;2.75;;
21786;SDS011;11055;50.870;4.316;2023-01-26T14:18:03;16.45;;;3.05;;
21786;SDS011;11055;50.870;4.316;2023-01-26T14:20:34;15.98;;;2.63;;
21786;SDS011;11055;50.870;4.316;2023-01-26T14:25:37;20.10;;;3.75;;
21786;SDS011;11055;50.870;4.316;2023-01-26T14:28:12;17.85;;;3.15;;
21786;SDS011;11055;50.870;4.316;2023-01-26T14:30:40;13.80;;;3.50;;
21786;SDS011;11055;50.870;4.316;2023-01-26T14:33:09;16.48;;;3.17;;
21786;SDS011;11055;50.870;4.316;2023-01-26T14:35:37;18.25;;;2.70;;
21786;SDS011;11055;50.870;4.316;2023-01-26T14:40:35;19.02;;;3.30;;
21786;SDS011;11055;50.870;4.316;2023-01-26T14:43:08;15.23;;;2.55;;
21786;SDS011;11055;50.870;4.316;2023-01-26T14:45:36;21.38;;;2.80;;
21786;SDS011;11055;50.870;4.316;2023-01-26T14:48:04;12.98;;;2.70;;
21786;SDS011;11055;50.870;4.316;2023-01-26T14:50:33;14.73;;;3.30;;
21786;SDS011;11055;50.870;4.316;2023-01-26T14:53:00;15.68;;;3.17;;
21786;SDS011;11055;50.870;4.316;2023-01-26T14:55:29;13.95;;;3.15;;
21786;SDS011;11055;50.870;4.316;2023-01-26T14:57:57;19.67;;;3.88;;
21786;SDS011;11055;50.870;4.316;2023-01-26T15:00:45;18.65;;;3.85;;
21786;SDS011;11055;50.870;4.316;2023-01-26T15:03:14;20.27;;;3.45;;
21786;SDS011;11055;50.870;4.316;2023-01-26T15:06:18;15.88;;;3.22;;
21786;SDS011;11055;50.870;4.316;2023-01-26T15:08:52;13.13;;;2.92;;
21786;SDS011;11055;50.870;4.316;2023-01-26T15:11:25;15.30;;;3.47;;
21786;SDS011;11055;50.870;4.316;2023-01-26T15:17:25;12.98;;;3.03;;
21786;SDS011;11055;50.870;4.316;2023-01-26T15:19:54;12.98;;;3.08;;
21786;SDS011;11055;50.870;4.316;2023-01-26T15:22:21;15.82;;;3.35;;
21786;SDS011;11055;50.870;4.316;2023-01-26T15:27:57;18.40;;;3.33;;
21786;SDS011;11055;50.870;4.316;2023-01-26T15:30:31;13.27;;;3.17;;
21786;SDS011;11055;50.870;4.316;2023-01-26T15:32:58;13.68;;;2.90;;
21786;SDS011;11055;50.870;4.316;2023-01-26T15:35:30;14.13;;;2.90;;
21786;SDS011;11055;50.870;4.316;2023-01-26T15:40:26;16.58;;;2.90;;
21786;SDS011;11055;50.870;4.316;2023-01-26T15:45:45;12.45;;;3.17;;
21786;SDS011;11055;50.870;4.316;2023-01-26T15:48:20;11.90;;;2.60;;
21786;SDS011;11055;50.870;4.316;2023-01-26T15:50:48;17.60;;;3.10;;
21786;SDS011;11055;50.870;4.316;2023-01-26T15:53:14;14.68;;;3.05;;
21786;SDS011;11055;50.870;4.316;2023-01-26T15:55:44;16.08;;;2.83;;
21786;SDS011;11055;50.870;4.316;2023-01-26T15:58:16;17.45;;;3.13;;
21786;SDS011;11055;50.870;4.316;2023-01-26T16:00:52;9.80;;;2.80;;
21786;SDS011;11055;50.870;4.316;2023-01-26T16:03:19;15.15;;;2.80;;
21786;SDS011;11055;50.870;4.316;2023-01-26T16:05:45;13.52;;;2.88;;
21786;SDS011;11055;50.870;4.316;2023-01-26T16:08:12;14.55;;;3.30;;
21786;SDS011;11055;50.870;4.316;2023-01-26T16:10:38;15.27;;;3.30;;
21786;SDS011;11055;50.870;4.316;2023-01-26T16:13:08;17.63;;;2.92;;
21786;SDS011;11055;50.870;4.316;2023-01-26T16:15:41;13.15;;;3.15;;
21786;SDS011;11055;50.870;4.316;2023-01-26T16:18:12;11.00;;;2.97;;
21786;SDS011;11055;50.870;4.316;2023-01-26T16:20:38;9.57;;;2.42;;
21786;SDS011;11055;50.870;4.316;2023-01-26T16:23:19;11.75;;;2.60;;
21786;SDS011;11055;50.870;4.316;2023-01-26T16:25:45;10.60;;;2.25;;
21786;SDS011;11055;50.870;4.316;2023-01-26T16:28:11;11.65;;;2.97;;